Time;durP1;ratioP1;P1;durP2;ratioP2;P2;SDS_P1;SDS_P2;PMS_P1;PMS_P2;Temp;Humidity;BMP_temperature;BMP_pressure;BME280_temperature;BME280_humidity;BME280_pressure;Samples;Min_cycle;Max_cycle;Signal;HPM_P1;HPM_P2
2021/12/19 05:06:51;;;;;;;8.70;5.80;;;3.50;96.30;;;;;;4878655;29;20414;-78
2021/12/19 05:14:50;;;;;;;7.10;5.40;;;3.60;96.30;;;;;;4879551;29;20528;-78
2021/12/19 05:17:21;;;;;;;6.00;4.90;;;3.50;96.30;;;;;;4878880;29;20434;-78
2021/12/19 05:19:53;;;;;;;8.20;4.53;;;3.50;96.30;;;;;;4879414;29;20450;-78
2021/12/19 05:30:05;;;;;;;5.90;4.90;;;3.50;96.30;;;;;;5406342;23;20867;-78
2021/12/19 05:32:31;;;;;;;6.80;4.97;;;3.50;96.30;;;;;;4876976;29;20659;-79
2021/12/19 05:34:56;;;;;;;6.80;4.27;;;3.50;96.30;;;;;;4878394;29;20970;-78
2021/12/19 05:45:34;;;;;;;10.70;5.67;;;3.50;96.30;;;;;;4878501;29;20402;-78
2021/12/19 05:48:00;;;;;;;12.63;5.50;;;3.40;96.30;;;;;;4878052;29;20801;-79
2021/12/19 05:50:25;;;;;;;8.13;5.20;;;3.50;96.30;;;;;;4881605;29;20261;-79
2021/12/19 05:52:52;;;;;;;7.27;5.40;;;3.50;96.30;;;;;;4883286;29;20181;-80
2021/12/19 05:55:19;;;;;;;8.50;6.07;;;3.50;96.30;;;;;;4881413;29;20292;-80
2021/12/19 05:57:45;;;;;;;7.50;5.60;;;3.50;96.30;;;;;;4882241;29;20793;-79
2021/12/19 06:00:14;;;;;;;8.47;5.87;;;3.50;96.30;;;;;;4883091;29;20421;-80
2021/12/19 06:02:41;;;;;;;9.83;5.73;;;3.40;96.30;;;;;;4883068;29;20178;-80
2021/12/19 06:05:08;;;;;;;8.40;5.47;;;3.40;96.30;;;;;;4881751;29;20779;-80
2021/12/19 06:07:34;;;;;;;9.10;4.73;;;3.40;96.30;;;;;;4883211;29;20422;-80
2021/12/19 06:09:59;;;;;;;7.80;5.03;;;3.30;96.30;;;;;;4882291;29;20513;-80
2021/12/19 06:12:25;;;;;;;6.87;5.83;;;3.50;96.30;;;;;;4881252;29;20197;-80
2021/12/19 06:14:52;;;;;;;10.60;5.60;;;3.50;96.30;;;;;;4881779;29;20669;-80
2021/12/19 06:17:18;;;;;;;12.00;5.77;;;3.50;96.30;;;;;;4882567;29;20934;-79
2021/12/19 06:19:43;;;;;;;8.23;5.97;;;3.40;96.30;;;;;;4881128;29;20469;-79
2021/12/19 06:22:09;;;;;;;15.40;5.20;;;3.40;96.30;;;;;;4881531;29;20229;-79
2021/12/19 06:24:36;;;;;;;7.87;5.93;;;3.40;96.30;;;;;;4881371;29;20599;-79
2021/12/19 06:27:02;;;;;;;9.60;6.40;;;3.40;96.30;;;;;;4881370;29;20185;-80
2021/12/19 06:29:29;;;;;;;9.30;5.87;;;3.40;96.30;;;;;;4882261;29;20433;-79
2021/12/19 06:31:55;;;;;;;8.73;6.63;;;3.30;96.30;;;;;;4883303;29;20201;-80
2021/12/19 06:34:21;;;;;;;9.27;6.20;;;3.40;96.30;;;;;;4882213;29;20458;-80
2021/12/19 06:36:46;;;;;;;7.93;6.30;;;3.40;96.30;;;;;;4881470;29;20479;-80
2021/12/19 06:39:12;;;;;;;7.20;5.57;;;3.40;96.30;;;;;;4884006;29;20178;-79
2021/12/19 06:41:37;;;;;;;7.63;6.70;;;3.30;96.30;;;;;;4882562;29;20678;-79
2021/12/19 06:44:04;;;;;;;7.57;5.97;;;3.30;96.30;;;;;;4884083;29;20174;-80
2021/12/19 06:46:31;;;;;;;9.20;5.03;;;3.40;96.30;;;;;;4882978;29;20182;-79
2021/12/19 06:48:56;;;;;;;11.10;6.33;;;3.40;96.30;;;;;;4882601;29;20425;-79
2021/12/19 06:51:22;;;;;;;8.40;5.57;;;3.40;96.30;;;;;;4879962;29;20453;-80
2021/12/19 06:53:48;;;;;;;8.60;6.30;;;3.40;96.30;;;;;;4881631;29;20312;-80
2021/12/19 06:56:14;;;;;;;8.40;5.63;;;3.40;96.30;;;;;;4880523;29;20184;-80
2021/12/19 06:58:39;;;;;;;10.37;7.60;;;3.30;96.30;;;;;;4883270;29;20182;-80
2021/12/19 07:01:06;;;;;;;12.90;7.67;;;3.30;96.30;;;;;;4895640;29;20465;-80
2021/12/19 07:03:32;;;;;;;15.53;8.33;;;3.30;96.30;;;;;;4904549;29;20177;-80
2021/12/19 07:05:58;;;;;;;10.17;7.00;;;3.30;96.30;;;;;;4902640;29;20425;-80
2021/12/19 07:08:24;;;;;;;13.00;8.10;;;3.30;96.30;;;;;;4905137;29;20808;-79
2021/12/19 07:10:50;;;;;;;9.20;5.70;;;3.30;96.30;;;;;;4906323;29;20678;-80
2021/12/19 07:13:20;;;;;;;11.43;7.63;;;3.30;96.30;;;;;;4904933;29;20546;-80
2021/12/19 07:15:49;;;;;;;11.27;8.10;;;3.30;96.30;;;;;;4905614;29;20405;-81
2021/12/19 07:18:15;;;;;;;9.00;7.00;;;3.30;96.30;;;;;;4904618;29;20469;-80
2021/12/19 07:20:42;;;;;;;8.43;7.30;;;3.30;96.30;;;;;;4902436;29;20429;-80
2021/12/19 07:23:16;;;;;;;9.70;6.40;;;3.30;96.30;;;;;;4883843;29;20982;-80
2021/12/19 07:25:42;;;;;;;11.90;7.70;;;3.30;96.30;;;;;;4883162;29;20420;-80
2021/12/19 07:28:08;;;;;;;8.27;6.20;;;3.30;96.30;;;;;;4885250;29;20530;-80
2021/12/19 07:30:37;;;;;;;11.90;8.37;;;3.30;96.30;;;;;;4880670;29;20225;-79
2021/12/19 07:33:04;;;;;;;13.40;7.73;;;3.30;96.30;;;;;;4885301;29;20414;-80
2021/12/19 07:35:33;;;;;;;13.30;7.87;;;3.30;96.30;;;;;;4882793;29;20458;-79
2021/12/19 07:37:59;;;;;;;13.30;7.70;;;3.30;96.30;;;;;;4882862;29;20433;-79
2021/12/19 07:40:28;;;;;;;9.37;7.03;;;3.30;96.30;;;;;;4879818;29;20418;-79
2021/12/19 07:42:58;;;;;;;11.30;8.33;;;3.30;96.30;;;;;;4880837;29;20205;-79
2021/12/19 07:45:24;;;;;;;13.97;8.70;;;3.30;96.30;;;;;;4877805;29;20422;-80
2021/12/19 07:47:49;;;;;;;8.97;6.50;;;3.30;96.30;;;;;;4882221;29;20455;-79
2021/12/19 07:50:15;;;;;;;12.60;9.20;;;3.30;96.30;;;;;;4868711;29;20435;-80
2021/12/19 07:52:41;;;;;;;11.53;8.30;;;3.30;96.30;;;;;;4862215;29;20657;-79
2021/12/19 07:55:07;;;;;;;12.80;7.97;;;3.30;96.30;;;;;;4885662;29;20512;-78
2021/12/19 07:57:33;;;;;;;15.13;8.80;;;3.30;96.30;;;;;;4879972;29;20634;-78
2021/12/19 07:59:58;;;;;;;11.27;8.07;;;3.30;96.30;;;;;;4884715;29;20505;-77
2021/12/19 08:02:24;;;;;;;14.00;8.73;;;3.30;96.30;;;;;;4888496;29;20293;-77
2021/12/19 08:04:49;;;;;;;14.73;9.20;;;3.30;96.30;;;;;;4884819;29;20665;-77
2021/12/19 08:07:17;;;;;;;13.20;9.20;;;3.30;96.30;;;;;;4882881;29;20558;-76
2021/12/19 08:12:27;;;;;;;11.67;7.93;;;3.30;96.30;;;;;;4884516;29;20460;-76
2021/12/19 08:14:53;;;;;;;14.13;8.50;;;3.30;96.30;;;;;;4883893;29;20458;-77
2021/12/19 08:17:18;;;;;;;11.60;8.10;;;3.30;96.30;;;;;;4886368;29;20426;-77
2021/12/19 08:19:44;;;;;;;8.90;6.70;;;3.30;96.30;;;;;;4887889;29;20256;-77
2021/12/19 08:22:13;;;;;;;12.87;9.23;;;3.30;96.30;;;;;;4886322;29;20216;-77
2021/12/19 08:24:38;;;;;;;12.13;6.93;;;3.30;96.30;;;;;;4884745;29;20179;-76
2021/12/19 08:27:04;;;;;;;13.47;8.40;;;3.30;96.30;;;;;;4887956;29;20417;-76
2021/12/19 08:29:30;;;;;;;12.20;8.10;;;3.30;96.30;;;;;;4886171;29;20201;-78
2021/12/19 08:31:55;;;;;;;11.73;8.60;;;3.30;96.30;;;;;;4886230;29;20295;-76
2021/12/19 08:34:21;;;;;;;13.43;9.27;;;3.30;96.30;;;;;;4886114;29;20198;-76
2021/12/19 08:36:46;;;;;;;13.90;8.73;;;3.30;96.30;;;;;;4886093;29;20236;-77
2021/12/19 08:39:12;;;;;;;11.53;8.83;;;3.30;96.30;;;;;;4884900;29;20650;-76
2021/12/19 08:41:39;;;;;;;9.53;7.77;;;3.30;96.30;;;;;;4885231;29;20236;-77
2021/12/19 08:44:05;;;;;;;12.23;7.97;;;3.30;96.30;;;;;;4886246;29;20416;-78
2021/12/19 08:46:32;;;;;;;9.27;7.77;;;3.30;96.30;;;;;;4887907;29;20429;-77
2021/12/19 08:48:58;;;;;;;11.97;8.37;;;3.30;96.30;;;;;;4883370;29;20828;-78
2021/12/19 08:51:26;;;;;;;12.37;8.60;;;3.20;96.30;;;;;;4889291;29;20452;-78
2021/12/19 08:53:52;;;;;;;9.80;7.50;;;3.30;96.30;;;;;;4890098;29;21080;-77
2021/12/19 08:56:17;;;;;;;9.17;7.10;;;3.20;96.30;;;;;;4884064;29;20419;-78
2021/12/19 08:58:43;;;;;;;12.90;9.07;;;3.20;96.30;;;;;;4873843;29;20182;-77
2021/12/19 09:01:08;;;;;;;13.30;7.50;;;3.20;96.30;;;;;;4884344;29;20681;-79
2021/12/19 09:03:34;;;;;;;11.57;7.10;;;3.20;96.30;;;;;;4885637;29;20212;-79
2021/12/19 09:06:00;;;;;;;10.83;8.40;;;3.20;96.30;;;;;;4883922;29;20379;-78
2021/12/19 09:08:25;;;;;;;10.63;7.63;;;3.30;96.30;;;;;;4886206;29;20181;-76
2021/12/19 09:10:52;;;;;;;9.00;7.00;;;3.30;96.30;;;;;;4883817;29;20283;-77
2021/12/19 09:13:18;;;;;;;8.60;6.60;;;3.20;96.30;;;;;;4886232;29;20185;-78
2021/12/19 09:15:43;;;;;;;11.13;6.93;;;3.20;96.30;;;;;;4897282;29;20469;-78
2021/12/19 09:18:09;;;;;;;8.83;6.80;;;3.20;96.30;;;;;;4878776;29;20658;-76
2021/12/19 09:20:34;;;;;;;8.23;7.17;;;3.20;96.30;;;;;;4877858;29;20726;-81
2021/12/19 09:23:00;;;;;;;7.13;6.17;;;3.30;96.30;;;;;;4881987;29;20228;-83
2021/12/19 09:25:26;;;;;;;7.87;6.60;;;3.30;96.30;;;;;;4896568;29;20267;-82
2021/12/19 09:27:51;;;;;;;9.00;7.07;;;3.20;96.30;;;;;;4896526;29;20181;-82
2021/12/19 09:30:18;;;;;;;8.43;6.67;;;3.20;96.30;;;;;;4897707;29;20196;-82
2021/12/19 09:32:43;;;;;;;8.10;6.77;;;3.30;96.30;;;;;;4896410;29;20191;-81
2021/12/19 09:35:10;;;;;;;8.57;6.20;;;3.20;96.30;;;;;;4895326;29;20454;-82
2021/12/19 09:37:35;;;;;;;9.77;6.30;;;3.30;96.30;;;;;;4879170;29;20200;-81
2021/12/19 09:40:04;;;;;;;7.30;6.20;;;3.30;96.30;;;;;;4878084;29;20918;-80
2021/12/19 09:42:34;;;;;;;7.80;6.50;;;3.30;96.30;;;;;;4878379;29;20201;-80
2021/12/19 09:45:01;;;;;;;9.53;7.17;;;3.30;96.30;;;;;;4864927;29;20431;-80
2021/12/19 09:47:27;;;;;;;5.83;4.80;;;3.30;96.30;;;;;;4859242;29;20872;-82
2021/12/19 09:49:54;;;;;;;8.30;6.70;;;3.30;96.30;;;;;;4860507;29;20419;-82
2021/12/19 09:52:20;;;;;;;8.30;5.80;;;3.30;96.30;;;;;;4860278;29;20442;-81
2021/12/19 09:54:45;;;;;;;6.70;5.60;;;3.30;96.30;;;;;;4873991;29;20517;-81
2021/12/19 09:57:11;;;;;;;10.40;6.00;;;3.30;96.30;;;;;;4879860;29;20178;-81
2021/12/19 09:59:38;;;;;;;10.00;6.50;;;3.30;96.30;;;;;;4888321;29;20184;-81
2021/12/19 10:02:04;;;;;;;8.00;6.10;;;3.30;96.30;;;;;;4889470;29;20224;-81
2021/12/19 10:04:30;;;;;;;9.70;6.53;;;3.30;96.30;;;;;;4873057;29;20431;-80
2021/12/19 10:07:18;;;;;;;8.37;6.90;;;3.30;96.30;;;;;;4872302;29;20451;-81
2021/12/19 10:10:10;;;;;;;7.43;5.87;;;3.30;96.30;;;;;;4873322;29;20180;-81
2021/12/19 10:12:48;;;;;;;6.97;6.27;;;3.40;96.30;;;;;;4887069;29;20513;-80
2021/12/19 10:15:27;;;;;;;10.60;6.00;;;3.30;96.30;;;;;;4862131;29;20508;-82
2021/12/19 10:18:04;;;;;;;8.33;6.60;;;3.30;96.30;;;;;;4873910;29;20866;-81
2021/12/19 10:20:41;;;;;;;11.50;6.77;;;3.30;96.30;;;;;;4879793;29;20505;-80
2021/12/19 10:23:22;;;;;;;9.80;6.40;;;3.30;96.30;;;;;;4882641;29;20414;-80
2021/12/19 10:26:02;;;;;;;7.50;5.47;;;3.40;96.30;;;;;;4878003;29;20449;-80
2021/12/19 10:28:28;;;;;;;9.30;6.60;;;3.40;96.30;;;;;;4885569;29;20426;-80
2021/12/19 10:30:55;;;;;;;6.90;5.93;;;3.40;96.30;;;;;;4884364;29;20469;-80
2021/12/19 10:33:27;;;;;;;7.87;5.97;;;3.40;96.30;;;;;;4884424;29;20507;-80
2021/12/19 10:35:56;;;;;;;12.33;6.37;;;3.40;96.30;;;;;;4883088;29;20422;-80
2021/12/19 10:38:45;;;;;;;7.17;5.80;;;3.40;96.30;;;;;;4889183;29;20418;-80
2021/12/19 10:41:17;;;;;;;7.60;6.23;;;3.40;96.30;;;;;;4886991;29;20803;-81
2021/12/19 10:43:51;;;;;;;9.33;6.07;;;3.40;96.30;;;;;;4888139;29;20497;-80
2021/12/19 10:46:29;;;;;;;7.63;6.10;;;3.40;96.30;;;;;;4882778;29;20469;-80
2021/12/19 10:48:56;;;;;;;8.57;6.20;;;3.40;96.30;;;;;;4891193;29;20426;-79
2021/12/19 10:51:22;;;;;;;11.37;6.57;;;3.30;96.30;;;;;;4894281;29;20486;-80
2021/12/19 10:53:52;;;;;;;8.60;6.40;;;3.30;96.30;;;;;;4893364;29;20465;-80
2021/12/19 10:56:31;;;;;;;7.17;6.13;;;3.30;96.30;;;;;;4891792;29;20177;-80
2021/12/19 10:58:59;;;;;;;9.70;5.97;;;3.40;96.30;;;;;;4890463;29;20441;-80
2021/12/19 11:01:34;;;;;;;10.50;6.73;;;3.40;96.30;;;;;;4878473;29;20456;-80
2021/12/19 11:04:14;;;;;;;8.80;7.00;;;3.40;96.30;;;;;;4895343;29;20432;-79
2021/12/19 11:06:45;;;;;;;12.10;6.47;;;3.40;96.30;;;;;;4895472;29;20457;-79
2021/12/19 11:09:15;;;;;;;8.67;7.07;;;3.30;96.30;;;;;;4895045;29;20429;-82
2021/12/19 11:11:51;;;;;;;9.30;5.73;;;3.30;96.30;;;;;;4897912;29;20445;-83
2021/12/19 11:14:30;;;;;;;10.47;6.80;;;3.40;96.30;;;;;;4880986;29;20460;-83
2021/12/19 11:17:00;;;;;;;10.20;7.60;;;3.30;96.30;;;;;;4863336;29;20842;-84
2021/12/19 11:19:27;;;;;;;8.20;6.13;;;3.30;96.30;;;;;;4870957;29;20429;-83
2021/12/19 11:21:53;;;;;;;6.20;4.77;;;3.30;96.30;;;;;;4880329;29;20442;-83
2021/12/19 11:24:23;;;;;;;11.87;6.40;;;3.40;96.30;;;;;;4880233;29;20418;-83
2021/12/19 11:26:54;;;;;;;7.40;6.03;;;3.30;96.30;;;;;;4880512;29;20899;-83
2021/12/19 11:29:20;;;;;;;6.07;4.87;;;3.30;96.30;;;;;;4884435;29;20457;-78
2021/12/19 11:31:50;;;;;;;8.57;5.60;;;3.40;96.30;;;;;;4887853;29;20442;-79
2021/12/19 11:34:21;;;;;;;11.37;5.17;;;3.40;96.30;;;;;;4886330;29;20457;-79
2021/12/19 11:37:15;;;;;;;9.53;5.20;;;3.40;96.30;;;;;;4887558;29;20430;-78
2021/12/19 11:39:46;;;;;;;9.37;6.03;;;3.50;96.30;;;;;;4887059;29;20509;-79
2021/12/19 11:42:16;;;;;;;8.67;6.47;;;3.40;96.30;;;;;;4886111;29;20787;-79
2021/12/19 11:45:07;;;;;;;4.63;4.10;;;3.40;96.30;;;;;;4885218;29;20429;-79
2021/12/19 11:48:03;;;;;;;8.13;5.43;;;3.40;96.30;;;;;;4884763;29;21021;-79
2021/12/19 11:50:36;;;;;;;6.97;5.10;;;3.40;96.30;;;;;;4885983;29;20513;-78
2021/12/19 11:53:08;;;;;;;9.00;5.97;;;3.40;96.30;;;;;;4881571;29;20426;-78
2021/12/19 11:55:43;;;;;;;11.10;5.57;;;3.40;96.30;;;;;;4886234;29;20457;-78
2021/12/19 11:58:08;;;;;;;7.40;5.33;;;3.40;96.30;;;;;;4882104;29;20414;-78
2021/12/19 12:00:54;;;;;;;5.33;4.60;;;3.40;96.30;;;;;;4885471;29;20498;-79
2021/12/19 12:03:28;;;;;;;6.67;5.17;;;3.30;96.30;;;;;;4885038;29;20222;-80
2021/12/19 12:06:17;;;;;;;6.17;5.57;;;3.30;96.30;;;;;;4885313;29;20516;-81
2021/12/19 12:09:06;;;;;;;7.07;4.83;;;3.40;96.30;;;;;;4883373;29;20462;-80
2021/12/19 12:11:35;;;;;;;11.33;5.63;;;3.40;96.30;;;;;;4885524;29;20438;-80
2021/12/19 12:14:29;;;;;;;4.83;4.20;;;3.40;96.30;;;;;;4890717;29;20540;-80
2021/12/19 12:16:56;;;;;;;4.87;3.97;;;3.40;96.30;;;;;;4886130;29;20441;-81
2021/12/19 12:19:53;;;;;;;5.70;4.40;;;3.40;96.30;;;;;;4886012;29;20520;-80
2021/12/19 12:22:28;;;;;;;5.47;4.40;;;3.40;96.30;;;;;;4887690;29;20507;-80
2021/12/19 12:25:30;;;;;;;5.30;3.90;;;3.40;96.30;;;;;;4888340;29;20798;-79
2021/12/19 12:28:04;;;;;;;5.63;3.80;;;3.40;96.30;;;;;;4885448;29;20432;-79
2021/12/19 12:30:45;;;;;;;4.20;3.33;;;3.40;96.30;;;;;;4886985;29;20482;-78
2021/12/19 12:33:14;;;;;;;6.50;4.10;;;3.40;96.30;;;;;;4885760;29;20410;-78
2021/12/19 12:35:41;;;;;;;7.03;4.70;;;3.40;96.30;;;;;;4883343;29;20466;-78
2021/12/19 12:38:08;;;;;;;7.83;3.97;;;3.40;96.30;;;;;;4888429;29;20425;-78
2021/12/19 12:41:05;;;;;;;4.53;3.83;;;3.40;96.30;;;;;;4882451;29;20445;-78
2021/12/19 12:43:30;;;;;;;4.73;4.10;;;3.30;96.30;;;;;;4868016;29;20431;-80
2021/12/19 12:46:06;;;;;;;6.63;4.67;;;3.40;96.30;;;;;;4882241;29;20448;-80
2021/12/19 12:48:33;;;;;;;4.90;3.70;;;3.40;96.30;;;;;;4879293;29;20505;-80
2021/12/19 12:51:01;;;;;;;6.20;3.67;;;3.40;96.30;;;;;;4879144;29;20453;-80
2021/12/19 12:53:37;;;;;;;6.33;4.40;;;3.40;96.30;;;;;;4879815;29;20978;-80
2021/12/19 12:56:07;;;;;;;4.73;4.10;;;3.40;96.30;;;;;;4880065;29;20429;-80
2021/12/19 12:58:43;;;;;;;4.57;3.80;;;3.40;96.30;;;;;;4879240;29;20954;-80
2021/12/19 13:01:27;;;;;;;4.23;3.40;;;3.40;96.30;;;;;;4879751;29;20440;-80
2021/12/19 13:04:20;;;;;;;4.93;3.57;;;3.40;96.30;;;;;;4879968;29;21010;-80
2021/12/19 13:06:56;;;;;;;5.73;3.93;;;3.40;96.30;;;;;;4879995;29;20465;-80
2021/12/19 13:09:41;;;;;;;5.60;4.17;;;3.50;96.30;;;;;;4878560;29;20426;-80
2021/12/19 13:12:17;;;;;;;6.60;4.23;;;3.50;96.30;;;;;;4879358;29;20811;-80
2021/12/19 13:15:11;;;;;;;5.33;4.60;;;3.40;96.30;;;;;;4879143;29;20465;-80
2021/12/19 13:17:38;;;;;;;5.20;4.70;;;3.40;96.30;;;;;;4874472;29;20446;-80
2021/12/19 13:20:10;;;;;;;6.23;4.53;;;3.40;96.30;;;;;;4879816;29;20461;-80
2021/12/19 13:22:51;;;;;;;5.50;4.77;;;3.40;96.30;;;;;;4878862;29;21049;-80
2021/12/19 13:25:18;;;;;;;5.20;3.40;;;3.40;96.30;;;;;;4880480;29;20412;-80
2021/12/19 13:27:50;;;;;;;7.10;3.80;;;3.50;96.30;;;;;;4878630;29;20497;-80
2021/12/19 13:30:27;;;;;;;6.33;3.33;;;3.50;96.30;;;;;;4878512;29;20809;-80
2021/12/19 13:32:58;;;;;;;4.80;3.93;;;3.50;96.30;;;;;;4879162;29;20517;-80
2021/12/19 13:35:28;;;;;;;6.10;3.17;;;3.50;96.30;;;;;;4879439;29;20525;-80
2021/12/19 13:37:56;;;;;;;4.13;3.57;;;3.50;96.30;;;;;;4874051;29;20430;-80
2021/12/19 13:40:49;;;;;;;7.10;3.90;;;3.40;96.30;;;;;;4865786;29;20426;-79
2021/12/19 13:43:17;;;;;;;4.40;3.63;;;3.40;96.30;;;;;;4858835;29;20427;-80
2021/12/19 13:45:50;;;;;;;4.17;3.10;;;3.40;96.30;;;;;;4860357;29;20820;-80
2021/12/19 13:48:32;;;;;;;2.87;2.53;;;3.40;96.30;;;;;;4878205;29;20433;-80
2021/12/19 13:51:12;;;;;;;8.37;4.20;;;3.40;96.30;;;;;;4880748;29;20792;-79
2021/12/19 13:53:41;;;;;;;4.00;3.57;;;3.40;96.30;;;;;;4882800;29;20426;-79
2021/12/19 13:56:09;;;;;;;5.30;3.40;;;3.50;96.30;;;;;;4885018;29;20432;-78
2021/12/19 13:58:38;;;;;;;6.07;3.07;;;3.40;96.30;;;;;;4883156;29;20557;-78
2021/12/19 14:01:20;;;;;;;2.40;2.20;;;3.40;96.30;;;;;;4882202;29;20942;-78
2021/12/19 14:03:50;;;;;;;3.80;3.50;;;3.50;96.30;;;;;;4877004;29;20418;-79
2021/12/19 14:06:25;;;;;;;4.00;3.40;;;3.40;96.30;;;;;;4887765;29;20521;-78
2021/12/19 14:08:59;;;;;;;4.50;3.50;;;3.40;96.30;;;;;;4887102;29;20416;-78
2021/12/19 14:11:26;;;;;;;4.40;3.90;;;3.40;96.30;;;;;;4881367;29;20938;-79
2021/12/19 14:14:04;;;;;;;3.20;2.70;;;3.40;96.30;;;;;;4868454;29;20426;-78
2021/12/19 14:16:33;;;;;;;3.73;2.83;;;3.40;96.30;;;;;;4888133;29;20565;-79
2021/12/19 14:18:59;;;;;;;3.67;2.90;;;3.40;96.30;;;;;;4895593;29;20417;-79
2021/12/19 14:21:37;;;;;;;3.10;2.60;;;3.40;96.30;;;;;;4890296;29;20463;-79
2021/12/19 14:24:06;;;;;;;3.50;2.93;;;3.30;96.30;;;;;;4878755;29;20419;-79
2021/12/19 14:26:32;;;;;;;3.50;2.70;;;3.30;96.30;;;;;;4876492;29;20525;-78
2021/12/19 14:28:58;;;;;;;2.27;1.63;;;3.30;96.30;;;;;;4876615;29;21005;-79
2021/12/19 14:31:23;;;;;;;2.73;2.53;;;3.40;96.30;;;;;;4881884;29;20229;-78
2021/12/19 14:33:50;;;;;;;3.53;3.20;;;3.40;96.30;;;;;;4877915;29;20197;-78
2021/12/19 14:36:27;;;;;;;3.50;2.53;;;3.30;96.30;;;;;;4885917;29;20489;-78
2021/12/19 14:39:01;;;;;;;3.83;3.20;;;3.30;96.30;;;;;;4891010;29;20425;-78
2021/12/19 14:41:30;;;;;;;4.63;3.00;;;3.30;96.30;;;;;;4891775;29;20816;-78
2021/12/19 14:43:56;;;;;;;3.50;2.67;;;3.30;96.30;;;;;;4885376;29;20420;-79
2021/12/19 14:46:28;;;;;;;4.50;2.70;;;3.30;96.30;;;;;;4877138;29;20435;-78
2021/12/19 14:48:53;;;;;;;3.73;2.73;;;3.30;96.30;;;;;;4874590;29;20257;-78
2021/12/19 14:51:23;;;;;;;3.23;2.40;;;3.30;96.30;;;;;;4878055;29;20982;-79
2021/12/19 14:53:58;;;;;;;2.70;2.23;;;3.30;96.30;;;;;;4880946;29;20185;-78
2021/12/19 14:56:26;;;;;;;3.70;2.50;;;3.30;96.30;;;;;;4882485;29;20418;-79
2021/12/19 14:58:55;;;;;;;2.90;2.17;;;3.30;96.30;;;;;;4877667;29;21022;-77
2021/12/19 15:01:32;;;;;;;2.30;2.10;;;3.30;96.30;;;;;;4882136;29;20444;-78
2021/12/19 15:04:01;;;;;;;3.20;2.63;;;3.30;96.30;;;;;;4882396;29;20492;-78
2021/12/19 15:06:30;;;;;;;2.37;2.03;;;3.30;96.30;;;;;;4882999;29;20434;-78
2021/12/19 15:08:58;;;;;;;2.47;2.27;;;3.30;96.30;;;;;;4883220;29;20454;-78
2021/12/19 15:11:24;;;;;;;2.33;1.70;;;3.30;96.30;;;;;;4884503;29;20460;-78
2021/12/19 15:13:51;;;;;;;3.00;1.83;;;3.30;96.30;;;;;;4897255;29;20796;-78
2021/12/19 15:16:17;;;;;;;2.97;2.27;;;3.30;96.30;;;;;;4884717;29;20574;-78
2021/12/19 15:18:46;;;;;;;2.20;2.00;;;3.30;96.30;;;;;;4884176;29;20421;-78
2021/12/19 15:21:13;;;;;;;2.37;2.07;;;3.30;96.30;;;;;;4881287;29;20438;-78
2021/12/19 15:23:42;;;;;;;3.50;2.00;;;3.30;96.30;;;;;;4884931;29;20592;-78
2021/12/19 15:26:14;;;;;;;2.03;1.83;;;3.30;96.30;;;;;;4885865;29;20422;-77
2021/12/19 15:28:46;;;;;;;2.10;1.90;;;3.30;96.30;;;;;;4884393;29;20411;-77
2021/12/19 15:31:13;;;;;;;3.00;1.57;;;3.30;96.30;;;;;;4887807;29;20544;-77
2021/12/19 15:33:40;;;;;;;2.13;1.50;;;3.30;96.30;;;;;;4885020;29;21035;-77
2021/12/19 15:36:05;;;;;;;2.13;1.93;;;3.30;96.30;;;;;;4887475;29;20422;-78
2021/12/19 15:38:32;;;;;;;4.40;2.33;;;3.30;96.30;;;;;;4888016;29;20424;-77
2021/12/19 15:40:58;;;;;;;1.50;1.40;;;3.30;96.30;;;;;;4882872;29;20197;-77
2021/12/19 15:43:23;;;;;;;1.87;1.40;;;3.30;96.30;;;;;;4893354;29;20431;-78
2021/12/19 15:45:49;;;;;;;1.83;1.67;;;3.30;96.30;;;;;;4885421;29;20204;-77
2021/12/19 15:48:15;;;;;;;1.67;1.23;;;3.30;96.30;;;;;;4884683;29;20213;-77
2021/12/19 15:50:40;;;;;;;1.40;1.03;;;3.30;96.30;;;;;;4887010;29;20225;-77
2021/12/19 15:53:06;;;;;;;2.27;1.53;;;3.30;96.30;;;;;;4888331;29;20174;-77
2021/12/19 15:55:33;;;;;;;1.60;1.50;;;3.30;96.30;;;;;;4886359;29;20197;-78
2021/12/19 15:57:59;;;;;;;2.43;1.77;;;3.30;96.30;;;;;;4887990;29;20261;-76
2021/12/19 16:00:25;;;;;;;1.50;1.30;;;3.30;96.30;;;;;;4885695;29;20509;-77
2021/12/19 16:02:51;;;;;;;1.53;1.40;;;3.30;96.30;;;;;;4886314;29;20230;-78
2021/12/19 16:05:20;;;;;;;3.00;1.87;;;3.30;96.30;;;;;;4885853;29;20437;-78
2021/12/19 16:07:46;;;;;;;2.00;1.40;;;3.30;96.30;;;;;;4886573;29;20473;-79
2021/12/19 16:10:12;;;;;;;2.07;1.20;;;3.30;96.30;;;;;;4889902;29;20426;-77
2021/12/19 16:12:38;;;;;;;1.43;1.20;;;3.30;96.30;;;;;;4884529;29;20439;-77
2021/12/19 16:15:05;;;;;;;1.47;1.30;;;3.30;96.30;;;;;;4885522;29;20296;-77
2021/12/19 16:17:31;;;;;;;1.50;1.40;;;3.30;96.30;;;;;;4882018;29;20481;-77
2021/12/19 16:19:56;;;;;;;1.37;1.00;;;3.30;96.30;;;;;;4889672;29;20415;-78
2021/12/19 16:22:25;;;;;;;1.40;1.00;;;3.30;96.30;;;;;;4885182;29;20205;-76
2021/12/19 16:24:50;;;;;;;1.30;0.90;;;3.30;96.30;;;;;;4878751;29;20188;-76
2021/12/19 16:27:16;;;;;;;1.20;0.80;;;3.30;96.30;;;;;;4896865;29;20413;-76
2021/12/19 16:29:41;;;;;;;1.57;1.20;;;3.30;96.30;;;;;;4892714;29;20193;-76
2021/12/19 16:32:07;;;;;;;2.37;0.90;;;3.30;96.30;;;;;;4880203;29;20202;-76
2021/12/19 16:34:33;;;;;;;1.43;1.00;;;3.30;96.30;;;;;;4867705;29;20203;-76
2021/12/19 16:36:59;;;;;;;1.20;1.00;;;3.30;96.30;;;;;;4880313;29;20907;-77
2021/12/19 16:39:26;;;;;;;2.90;1.20;;;3.30;96.30;;;;;;4884764;29;20177;-77
2021/12/19 16:42:08;;;;;;;2.03;1.07;;;3.30;96.30;;;;;;4884091;29;20202;-76
2021/12/19 16:44:34;;;;;;;1.37;0.93;;;3.30;96.30;;;;;;4881796;29;20438;-75
2021/12/19 16:47:01;;;;;;;1.60;1.23;;;3.30;96.30;;;;;;4886497;29;20444;-76
2021/12/19 16:49:27;;;;;;;1.10;1.00;;;3.40;96.30;;;;;;4880778;29;20689;-78
2021/12/19 16:51:53;;;;;;;3.80;1.37;;;3.30;96.30;;;;;;4884851;29;20445;-78
2021/12/19 16:54:21;;;;;;;1.67;1.00;;;3.40;96.30;;;;;;4886707;29;20197;-78
2021/12/19 16:56:47;;;;;;;1.53;1.13;;;3.40;96.30;;;;;;4885051;29;20405;-78
2021/12/19 16:59:13;;;;;;;1.10;0.90;;;3.30;96.30;;;;;;4881604;29;20909;-78
2021/12/19 17:01:38;;;;;;;1.87;1.00;;;3.40;96.30;;;;;;4884939;29;20524;-76
2021/12/19 17:04:05;;;;;;;5.10;1.30;;;3.40;96.30;;;;;;4891844;29;20204;-75
2021/12/19 17:06:31;;;;;;;1.53;1.13;;;3.40;96.30;;;;;;4887488;29;20650;-75
2021/12/19 17:08:57;;;;;;;1.50;1.17;;;3.30;96.30;;;;;;4878843;29;20429;-76
2021/12/19 17:11:24;;;;;;;1.57;0.80;;;3.30;96.30;;;;;;4882317;29;20676;-75
2021/12/19 17:14:05;;;;;;;1.10;0.90;;;3.30;96.30;;;;;;4881087;29;20503;-75
2021/12/19 17:16:31;;;;;;;2.53;1.03;;;3.30;96.30;;;;;;4884467;29;20845;-77
2021/12/19 17:18:56;;;;;;;1.43;1.00;;;3.30;96.30;;;;;;4886495;29;20918;-77
2021/12/19 17:21:22;;;;;;;2.00;1.27;;;3.30;96.30;;;;;;4884738;29;20481;-77
2021/12/19 17:23:47;;;;;;;7.40;1.33;;;3.40;96.30;;;;;;4880314;29;20236;-76
2021/12/19 17:26:13;;;;;;;1.30;1.20;;;3.30;96.30;;;;;;4883317;29;20185;-76
2021/12/19 17:28:38;;;;;;;2.57;1.83;;;3.30;96.30;;;;;;4889353;29;20191;-76
2021/12/19 17:31:04;;;;;;;3.80;1.37;;;3.40;96.30;;;;;;4871456;29;20221;-77
2021/12/19 17:33:30;;;;;;;3.20;1.70;;;3.30;96.30;;;;;;4884649;29;20264;-77
2021/12/19 17:35:56;;;;;;;1.87;1.67;;;3.40;96.30;;;;;;4886868;29;20213;-78
2021/12/19 17:38:21;;;;;;;2.60;1.00;;;3.30;96.30;;;;;;4884263;29;20490;-77
2021/12/19 17:40:55;;;;;;;1.10;1.00;;;3.30;96.30;;;;;;4879663;29;20753;-76
2021/12/19 17:43:21;;;;;;;0.90;0.60;;;3.30;96.30;;;;;;4880779;29;20550;-76
2021/12/19 17:45:50;;;;;;;1.20;0.73;;;3.20;96.30;;;;;;4875917;29;20427;-76
2021/12/19 17:48:18;;;;;;;1.77;1.07;;;3.20;96.30;;;;;;4883381;29;20422;-76
2021/12/19 17:50:44;;;;;;;1.40;1.17;;;3.20;96.30;;;;;;4886127;29;20524;-76
2021/12/19 17:53:10;;;;;;;1.20;1.03;;;3.30;96.30;;;;;;4881289;29;20478;-76
2021/12/19 17:55:36;;;;;;;2.00;1.00;;;3.30;96.30;;;;;;4879149;29;20462;-77
2021/12/19 17:58:02;;;;;;;2.20;1.43;;;3.30;96.30;;;;;;4886353;29;20184;-78
2021/12/19 18:00:28;;;;;;;3.97;1.50;;;3.30;96.30;;;;;;4876362;29;20238;-79
2021/12/19 18:02:54;;;;;;;2.00;1.40;;;3.30;96.30;;;;;;4881453;29;20410;-78
2021/12/19 18:05:22;;;;;;;5.40;1.93;;;3.30;96.30;;;;;;4885929;29;20445;-78
2021/12/19 18:07:47;;;;;;;2.13;1.70;;;3.40;96.30;;;;;;4885130;29;20181;-77
2021/12/19 18:10:16;;;;;;;4.80;1.73;;;3.40;96.30;;;;;;4881718;29;20414;-77
2021/12/19 18:12:41;;;;;;;3.00;2.00;;;3.40;96.30;;;;;;4884561;29;20654;-79
2021/12/19 18:15:09;;;;;;;4.10;2.00;;;3.40;96.30;;;;;;4874955;29;20480;-76
2021/12/19 18:17:35;;;;;;;7.27;2.47;;;3.30;96.30;;;;;;4878363;29;20178;-77
2021/12/19 18:20:01;;;;;;;6.17;2.03;;;3.30;96.30;;;;;;4876826;29;20779;-77
2021/12/19 18:22:26;;;;;;;8.30;1.90;;;3.40;96.30;;;;;;4878608;29;20441;-77
2021/12/19 18:24:52;;;;;;;3.97;1.60;;;3.30;96.30;;;;;;4878262;29;20181;-77
2021/12/19 18:27:18;;;;;;;9.40;2.13;;;3.30;96.30;;;;;;4898283;29;20260;-78
2021/12/19 18:29:43;;;;;;;3.93;2.57;;;3.40;96.30;;;;;;4899408;29;20276;-77
2021/12/19 18:32:09;;;;;;;3.90;2.40;;;3.40;96.30;;;;;;4899044;29;20201;-77
2021/12/19 18:34:44;;;;;;;6.20;2.07;;;3.40;96.30;;;;;;4899201;29;20569;-77
2021/12/19 18:37:13;;;;;;;5.33;1.90;;;3.40;96.30;;;;;;4897966;29;20507;-78